createdAt,value
2023-01-18T00:00:34.959Z,5.07
2023-01-18T00:03:03.460Z,5.27
2023-01-18T00:05:33.293Z,4.47
2023-01-18T00:08:01.879Z,5.17
2023-01-18T00:10:30.418Z,5.30
2023-01-18T00:12:59.852Z,4.70
2023-01-18T00:15:28.609Z,4.77
2023-01-18T00:17:57.440Z,4.57
2023-01-18T00:20:26.974Z,4.73
2023-01-18T00:22:57.247Z,4.83
2023-01-18T00:25:26.250Z,4.63
2023-01-18T00:27:55.888Z,4.90
2023-01-18T00:30:25.134Z,5.00
2023-01-18T00:32:55.751Z,4.73
2023-01-18T00:35:25.034Z,5.10
2023-01-18T00:37:54.260Z,4.90
2023-01-18T00:40:28.314Z,5.10
2023-01-18T00:43:14.829Z,4.30
2023-01-18T00:45:44.044Z,4.93
2023-01-18T00:48:12.654Z,4.23
2023-01-18T00:50:41.275Z,4.27
2023-01-18T00:53:09.818Z,4.57
2023-01-18T00:55:39.736Z,4.60
2023-01-18T00:58:08.253Z,4.93
2023-01-18T01:00:36.912Z,4.60
2023-01-18T01:03:05.420Z,4.47
2023-01-18T01:05:51.830Z,5.17
2023-01-18T01:08:21.584Z,4.07
2023-01-18T01:10:52.614Z,4.60
2023-01-18T01:13:40.048Z,4.67
2023-01-18T01:16:26.796Z,4.63
2023-01-18T01:19:13.145Z,4.43
2023-01-18T01:21:59.764Z,5.00
2023-01-18T01:24:46.225Z,4.40
2023-01-18T01:27:17.361Z,4.40
2023-01-18T01:29:46.059Z,4.60
2023-01-18T01:32:14.638Z,4.60
2023-01-18T01:34:43.191Z,4.70
2023-01-18T01:37:11.713Z,4.13
2023-01-18T01:39:40.287Z,4.60
2023-01-18T01:42:12.021Z,4.40
2023-01-18T01:44:45.095Z,3.97
2023-01-18T01:47:15.479Z,4.90
2023-01-18T01:49:46.737Z,4.33
2023-01-18T01:52:16.529Z,4.63
2023-01-18T01:54:47.574Z,4.23
2023-01-18T01:57:17.511Z,4.40
2023-01-18T01:59:51.396Z,4.20
2023-01-18T02:02:20.086Z,4.47
2023-01-18T02:04:53.645Z,4.40
2023-01-18T02:07:22.393Z,4.13
2023-01-18T02:09:51.415Z,4.23
2023-01-18T02:12:20.666Z,4.00
2023-01-18T02:14:50.800Z,4.30
2023-01-18T02:17:25.743Z,4.67
2023-01-18T02:20:09.104Z,4.70
2023-01-18T02:22:45.963Z,4.53
2023-01-18T02:25:28.235Z,4.53
2023-01-18T02:28:06.653Z,4.40
2023-01-18T02:30:38.723Z,4.60
2023-01-18T02:33:10.495Z,4.77
2023-01-18T02:35:44.106Z,4.37
2023-01-18T02:38:14.806Z,4.43
2023-01-18T02:40:58.572Z,4.40
2023-01-18T02:43:46.752Z,4.07
2023-01-18T02:46:33.900Z,4.17
2023-01-18T02:49:03.992Z,4.17
2023-01-18T02:51:32.659Z,4.70
2023-01-18T02:54:01.547Z,5.10
2023-01-18T02:56:33.504Z,4.67
2023-01-18T02:59:05.982Z,4.57
2023-01-18T03:01:38.607Z,5.17
2023-01-18T03:04:10.278Z,4.73
2023-01-18T03:06:39.865Z,4.80
2023-01-18T03:09:08.389Z,4.57
2023-01-18T03:11:39.631Z,4.40
2023-01-18T03:14:15.435Z,4.50
2023-01-18T03:16:57.952Z,4.73
2023-01-18T03:19:50.971Z,4.30
2023-01-18T03:22:39.667Z,4.83
2023-01-18T03:25:09.354Z,4.10
2023-01-18T03:27:56.241Z,4.47
2023-01-18T03:30:44.393Z,4.13
2023-01-18T03:33:31.469Z,4.67
2023-01-18T03:36:01.330Z,4.53
2023-01-18T03:38:31.155Z,4.47
2023-01-18T03:41:01.598Z,4.70
2023-01-18T03:43:36.342Z,4.77
2023-01-18T03:46:07.935Z,4.70
2023-01-18T03:48:37.664Z,5.10
2023-01-18T03:51:11.007Z,5.00
2023-01-18T03:53:41.573Z,5.23
2023-01-18T03:56:12.396Z,4.60
2023-01-18T03:58:42.136Z,4.87
2023-01-18T04:01:12.185Z,5.57
2023-01-18T04:03:40.826Z,4.90
2023-01-18T04:06:09.684Z,5.13
2023-01-18T04:08:38.276Z,5.53
2023-01-18T04:11:06.964Z,5.43
2023-01-18T04:13:35.518Z,5.17
2023-01-18T04:16:04.685Z,5.40
2023-01-18T04:18:34.648Z,5.63
2023-01-18T04:21:03.204Z,5.03
2023-01-18T04:23:31.748Z,5.37
2023-01-18T04:26:00.316Z,5.47
2023-01-18T04:28:28.936Z,5.00
2023-01-18T04:30:58.029Z,5.83
2023-01-18T04:33:27.517Z,5.13
2023-01-18T04:35:57.546Z,5.07
2023-01-18T04:38:26.086Z,5.67
2023-01-18T04:40:54.632Z,5.67
2023-01-18T04:43:23.192Z,5.20
2023-01-18T04:45:55.519Z,5.37
2023-01-18T04:48:24.604Z,4.93
2023-01-18T04:50:53.228Z,5.33
2023-01-18T04:53:23.608Z,5.30
2023-01-18T04:55:52.186Z,5.57
2023-01-18T04:58:20.760Z,5.73
2023-01-18T05:00:49.447Z,5.37
2023-01-18T05:03:18.085Z,5.43
2023-01-18T05:05:46.619Z,4.73
2023-01-18T05:08:15.122Z,5.50
2023-01-18T05:10:45.003Z,5.63
2023-01-18T05:13:13.549Z,4.90
2023-01-18T05:15:42.618Z,5.43
2023-01-18T05:18:11.236Z,5.03
2023-01-18T05:20:39.885Z,5.93
2023-01-18T05:23:10.965Z,5.33
2023-01-18T05:25:40.129Z,5.43
2023-01-18T05:28:10.453Z,5.70
2023-01-18T05:30:40.490Z,6.00
2023-01-18T05:33:09.315Z,5.80
2023-01-18T05:35:38.054Z,5.93
2023-01-18T05:38:06.687Z,6.27
2023-01-18T05:40:35.279Z,6.87
2023-01-18T05:43:03.884Z,6.67
2023-01-18T05:45:34.327Z,6.17
2023-01-18T05:48:03.895Z,6.20
2023-01-18T05:50:32.455Z,7.53
2023-01-18T05:53:01.476Z,6.17
2023-01-18T05:55:30.203Z,7.30
2023-01-18T05:57:58.753Z,6.63
2023-01-18T06:00:27.399Z,7.33
2023-01-18T06:02:57.588Z,7.07
2023-01-18T06:05:26.509Z,7.47
2023-01-18T06:07:55.067Z,7.33
2023-01-18T06:10:23.656Z,7.57
2023-01-18T06:12:52.368Z,7.77
2023-01-18T06:15:21.075Z,7.67
2023-01-18T06:17:49.640Z,7.07
2023-01-18T06:20:19.876Z,6.17
2023-01-18T06:22:48.514Z,6.40
2023-01-18T06:25:17.233Z,6.90
2023-01-18T06:27:45.835Z,6.90
2023-01-18T06:30:14.685Z,7.63
2023-01-18T06:32:43.317Z,6.80
2023-01-18T06:35:11.932Z,7.57
2023-01-18T06:37:41.851Z,7.00
2023-01-18T06:40:10.970Z,7.37
2023-01-18T06:42:39.863Z,7.83
2023-01-18T06:45:08.885Z,7.13
2023-01-18T06:47:37.402Z,6.30
2023-01-18T06:50:06.299Z,6.57
2023-01-18T06:52:34.853Z,7.03
2023-01-18T06:55:04.892Z,7.17
2023-01-18T06:57:33.446Z,7.40
2023-01-18T07:00:05.892Z,8.00
2023-01-18T07:02:34.690Z,6.83
2023-01-18T07:05:03.453Z,6.93
2023-01-18T07:07:32.276Z,7.23
2023-01-18T07:10:00.904Z,7.37
2023-01-18T07:12:30.799Z,7.50
2023-01-18T07:15:01.598Z,7.13
2023-01-18T07:17:33.536Z,7.53
2023-01-18T07:20:02.099Z,7.17
2023-01-18T07:22:30.647Z,7.63
2023-01-18T07:24:59.209Z,7.10
2023-01-18T07:27:28.195Z,7.20
2023-01-18T07:29:58.097Z,8.10
2023-01-18T07:32:26.740Z,7.50
2023-01-18T07:34:56.410Z,7.80
2023-01-18T07:37:26.058Z,7.57
2023-01-18T07:39:54.607Z,7.30
2023-01-18T07:42:23.179Z,8.40
2023-01-18T07:44:51.716Z,8.17
2023-01-18T07:47:21.678Z,8.00
2023-01-18T07:49:50.253Z,8.03
2023-01-18T07:52:18.833Z,8.17
2023-01-18T07:54:47.346Z,8.57
2023-01-18T07:57:15.994Z,8.87
2023-01-18T07:59:44.557Z,8.97
2023-01-18T08:02:14.428Z,9.90
2023-01-18T08:04:45.603Z,9.53
2023-01-18T08:07:14.175Z,9.93
2023-01-18T08:09:42.712Z,10.47
2023-01-18T08:12:13.576Z,10.80
2023-01-18T08:14:44.863Z,10.57
2023-01-18T08:17:14.175Z,11.30
2023-01-18T08:19:42.760Z,11.23
2023-01-18T08:22:12.659Z,10.83
2023-01-18T08:24:41.211Z,10.80
2023-01-18T08:27:09.767Z,11.53
2023-01-18T08:29:38.284Z,10.70
2023-01-18T08:32:06.935Z,10.80
2023-01-18T08:34:35.513Z,10.50
2023-01-18T08:37:04.182Z,11.03
2023-01-18T08:39:34.305Z,10.73
2023-01-18T08:42:02.824Z,10.93
2023-01-18T08:44:31.409Z,10.27
2023-01-18T08:46:59.920Z,10.43
2023-01-18T08:49:28.468Z,11.00
2023-01-18T08:51:57.983Z,9.90
2023-01-18T08:54:26.560Z,9.33
2023-01-18T08:56:56.440Z,9.43
2023-01-18T08:59:25.070Z,9.03
2023-01-18T09:01:53.695Z,9.90
2023-01-18T09:04:22.860Z,9.97
2023-01-18T09:06:51.767Z,10.33
2023-01-18T09:09:20.350Z,9.50
2023-01-18T09:11:51.972Z,8.83
2023-01-18T09:14:22.151Z,9.07
2023-01-18T09:16:51.022Z,9.43
2023-01-18T09:19:19.699Z,9.70
2023-01-18T09:21:49.741Z,9.17
2023-01-18T09:24:18.539Z,9.53
2023-01-18T09:26:50.882Z,9.70
2023-01-18T09:29:19.516Z,9.97
2023-01-18T09:31:50.029Z,8.70
2023-01-18T09:34:20.249Z,9.07
2023-01-18T09:36:51.333Z,8.77
2023-01-18T09:39:20.364Z,9.67
2023-01-18T09:41:53.068Z,9.23
2023-01-18T09:44:25.380Z,8.80
2023-01-18T09:46:57.415Z,9.37
2023-01-18T09:49:29.004Z,9.97
2023-01-18T09:52:00.601Z,9.27
2023-01-18T09:54:34.481Z,8.57
2023-01-18T09:57:06.323Z,8.50
2023-01-18T09:59:37.258Z,8.40
2023-01-18T10:02:15.546Z,9.13
2023-01-18T10:04:46.768Z,8.27
2023-01-18T10:07:16.776Z,7.90
2023-01-18T10:09:48.422Z,8.00
2023-01-18T10:12:19.457Z,8.13
2023-01-18T10:14:49.612Z,6.90
2023-01-18T10:17:22.931Z,7.70
2023-01-18T10:19:52.168Z,6.93
2023-01-18T10:22:23.749Z,6.90
2023-01-18T10:24:55.344Z,7.87
2023-01-18T10:27:39.337Z,8.03
2023-01-18T10:30:21.711Z,7.23
2023-01-18T10:32:53.902Z,7.40
2023-01-18T10:35:26.540Z,6.67
2023-01-18T10:37:58.520Z,6.93
2023-01-18T10:40:27.292Z,6.60
2023-01-18T10:42:59.631Z,6.63
2023-01-18T10:45:29.543Z,6.50
2023-01-18T10:48:00.236Z,6.23
2023-01-18T10:50:36.080Z,6.03
2023-01-18T10:53:19.490Z,6.23
2023-01-18T10:55:52.969Z,5.60
2023-01-18T10:58:25.943Z,5.50
2023-01-18T11:00:55.026Z,5.50
2023-01-18T11:03:26.184Z,5.83
2023-01-18T11:05:54.975Z,5.37
2023-01-18T11:08:24.193Z,5.50
2023-01-18T11:11:03.041Z,4.77
2023-01-18T11:13:33.084Z,4.80
2023-01-18T11:16:05.935Z,5.33
2023-01-18T11:18:35.931Z,5.20
2023-01-18T11:21:04.824Z,4.50
2023-01-18T11:23:35.656Z,4.77
2023-01-18T11:26:07.430Z,4.93
2023-01-18T11:28:39.184Z,4.67
2023-01-18T11:31:09.465Z,5.33
2023-01-18T11:33:41.205Z,5.50
2023-01-18T11:36:10.001Z,5.37
2023-01-18T11:38:38.594Z,5.47
2023-01-18T11:41:09.060Z,5.63
2023-01-18T11:43:39.440Z,5.73
2023-01-18T11:46:15.264Z,5.03
2023-01-18T11:48:49.659Z,5.50
2023-01-18T11:51:22.276Z,5.23
2023-01-18T11:53:55.508Z,5.30
2023-01-18T11:56:30.396Z,4.97
2023-01-18T11:58:59.239Z,5.77
2023-01-18T12:01:36.829Z,4.67
2023-01-18T12:04:08.727Z,5.10
2023-01-18T12:06:41.326Z,4.70
2023-01-18T12:09:20.752Z,4.77
2023-01-18T12:11:51.888Z,4.67
2023-01-18T12:14:36.014Z,4.53
2023-01-18T12:17:28.805Z,5.10
2023-01-18T12:20:08.638Z,5.40
2023-01-18T12:22:57.528Z,4.33
2023-01-18T12:25:37.247Z,4.60
2023-01-18T12:28:09.467Z,4.50
2023-01-18T12:30:44.759Z,5.27
2023-01-18T12:33:17.398Z,4.00
2023-01-18T12:35:53.600Z,4.33
2023-01-18T12:38:23.891Z,5.10
2023-01-18T12:41:03.128Z,4.83
2023-01-18T12:43:38.535Z,5.07
2023-01-18T12:46:09.266Z,5.13
2023-01-18T12:48:42.817Z,5.20
2023-01-18T12:51:15.474Z,4.70
2023-01-18T12:53:45.959Z,5.17
2023-01-18T12:56:16.456Z,4.53
2023-01-18T12:58:45.246Z,4.23
2023-01-18T13:01:16.497Z,4.77
2023-01-18T13:03:46.226Z,4.17
2023-01-18T13:06:16.397Z,4.23
2023-01-18T13:08:46.226Z,4.17
2023-01-18T13:11:17.171Z,4.10
2023-01-18T13:13:46.512Z,4.20
2023-01-18T13:16:21.261Z,4.10
2023-01-18T13:18:54.598Z,4.07
2023-01-18T13:21:29.663Z,3.87
2023-01-18T13:24:05.038Z,3.70
2023-01-18T13:26:34.690Z,3.70
2023-01-18T13:29:14.527Z,3.93
2023-01-18T13:31:43.079Z,3.77
2023-01-18T13:34:22.313Z,3.90
2023-01-18T13:36:55.855Z,3.93
2023-01-18T13:39:32.707Z,3.80
2023-01-18T13:42:09.037Z,3.60
2023-01-18T13:44:42.766Z,4.10
2023-01-18T13:47:26.219Z,4.03
2023-01-18T13:49:54.822Z,4.00
2023-01-18T13:52:32.182Z,4.23
2023-01-18T13:55:03.617Z,4.50
2023-01-18T13:57:33.138Z,3.93
2023-01-18T14:00:02.421Z,3.17
2023-01-18T14:02:33.987Z,3.90
2023-01-18T14:05:04.557Z,3.80
2023-01-18T14:07:41.283Z,4.30
2023-01-18T14:10:22.073Z,3.87
2023-01-18T14:12:51.916Z,4.10
2023-01-18T14:15:29.923Z,3.90
2023-01-18T14:17:59.315Z,4.27
2023-01-18T14:20:38.396Z,3.90
2023-01-18T14:23:16.609Z,4.00
2023-01-18T14:25:52.274Z,4.30
2023-01-18T14:28:23.861Z,4.17
2023-01-18T14:30:56.682Z,4.93
2023-01-18T14:33:26.397Z,4.23
2023-01-18T14:35:58.103Z,4.57
2023-01-18T14:38:28.300Z,4.60
2023-01-18T14:40:58.202Z,4.80
2023-01-18T14:43:28.702Z,4.87
2023-01-18T14:46:00.200Z,5.60
2023-01-18T14:48:30.787Z,4.63
2023-01-18T14:51:00.122Z,4.80
2023-01-18T14:53:30.785Z,4.93
2023-01-18T14:56:03.088Z,4.70
2023-01-18T14:58:34.753Z,5.13
2023-01-18T15:01:03.468Z,5.50
2023-01-18T15:03:32.528Z,5.33
2023-01-18T15:06:03.868Z,5.17
2023-01-18T15:08:35.260Z,5.77
2023-01-18T15:11:05.473Z,5.70
2023-01-18T15:13:34.913Z,6.00
2023-01-18T15:16:03.975Z,5.70
2023-01-18T15:18:32.624Z,5.80
2023-01-18T15:21:02.390Z,5.47
2023-01-18T15:23:31.552Z,5.40
2023-01-18T15:26:01.495Z,5.77
2023-01-18T15:28:34.216Z,6.10
2023-01-18T15:31:07.414Z,5.00
2023-01-18T15:33:36.982Z,5.03
2023-01-18T15:36:05.698Z,5.00
2023-01-18T15:38:34.424Z,5.17
2023-01-18T15:41:06.378Z,5.33
2023-01-18T15:43:35.732Z,5.47
2023-01-18T15:46:04.592Z,5.10
2023-01-18T15:48:36.956Z,6.73
2023-01-18T15:51:10.923Z,4.97
2023-01-18T15:53:40.452Z,4.80
2023-01-18T15:56:16.325Z,5.03
2023-01-18T15:58:46.217Z,5.80
2023-01-18T16:01:19.469Z,5.07
2023-01-18T16:03:56.608Z,5.03
2023-01-18T16:06:32.747Z,4.23
2023-01-18T16:09:10.539Z,5.00
2023-01-18T16:11:48.013Z,5.20
2023-01-18T16:14:24.144Z,4.77
2023-01-18T16:16:53.744Z,4.90
2023-01-18T16:19:24.870Z,4.87
2023-01-18T16:21:54.829Z,5.40
2023-01-18T16:24:31.917Z,4.87
2023-01-18T16:27:03.373Z,4.60
2023-01-18T16:29:40.394Z,4.93
2023-01-18T16:32:19.312Z,4.90
2023-01-18T16:34:47.953Z,4.87
2023-01-18T16:37:17.998Z,4.97
2023-01-18T16:39:46.845Z,4.83
2023-01-18T16:42:18.205Z,4.07
2023-01-18T16:44:48.724Z,4.40
2023-01-18T16:47:18.452Z,4.37
2023-01-18T16:49:47.678Z,4.07
2023-01-18T16:52:17.031Z,4.80
2023-01-18T16:54:46.405Z,5.10
2023-01-18T16:57:19.767Z,4.70
2023-01-18T16:59:48.357Z,3.67
2023-01-18T17:02:17.507Z,4.50
2023-01-18T17:04:46.519Z,4.67
2023-01-18T17:07:15.251Z,4.63
2023-01-18T17:09:48.705Z,3.97
2023-01-18T17:12:19.221Z,4.33
2023-01-18T17:14:47.772Z,3.83
2023-01-18T17:17:16.369Z,3.63
2023-01-18T17:19:45.018Z,3.80
2023-01-18T17:22:13.624Z,3.90
2023-01-18T17:24:42.177Z,3.33
2023-01-18T17:27:11.693Z,4.00
2023-01-18T17:29:41.651Z,3.80
2023-01-18T17:32:13.031Z,3.67
2023-01-18T17:34:41.627Z,4.00
2023-01-18T17:37:11.037Z,3.47
2023-01-18T17:39:49.618Z,3.60
2023-01-18T17:42:30.212Z,3.40
2023-01-18T17:45:03.788Z,3.30
2023-01-18T17:47:33.078Z,3.67
2023-01-18T17:50:08.440Z,3.43
2023-01-18T17:52:37.235Z,3.47
2023-01-18T17:55:06.587Z,3.40
2023-01-18T17:57:35.343Z,3.20
2023-01-18T18:00:06.017Z,3.10
2023-01-18T18:02:34.624Z,3.27
2023-01-18T18:05:03.970Z,3.00
2023-01-18T18:07:32.539Z,3.10
2023-01-18T18:10:01.787Z,3.20
2023-01-18T18:12:30.603Z,2.80
2023-01-18T18:14:59.137Z,3.03
2023-01-18T18:17:30.218Z,2.90
2023-01-18T18:19:58.785Z,2.90
2023-01-18T18:22:27.762Z,3.60
2023-01-18T18:24:56.327Z,2.60
2023-01-18T18:27:33.895Z,2.73
2023-01-18T18:30:06.599Z,3.00
2023-01-18T18:32:36.554Z,3.00
2023-01-18T18:35:14.838Z,2.83
2023-01-18T18:37:52.096Z,3.07
2023-01-18T18:40:20.765Z,3.03
2023-01-18T18:43:01.287Z,3.37
2023-01-18T18:45:31.725Z,2.73
2023-01-18T18:48:01.687Z,2.80
2023-01-18T18:50:30.741Z,3.20
2023-01-18T18:52:59.854Z,3.30
2023-01-18T18:55:28.646Z,3.20
2023-01-18T18:57:57.332Z,3.30
2023-01-18T19:00:27.324Z,3.17
2023-01-18T19:02:59.094Z,2.93
2023-01-18T19:05:29.469Z,3.07
2023-01-18T19:07:58.260Z,3.13
2023-01-18T19:10:30.215Z,3.13
2023-01-18T19:12:59.372Z,3.60
2023-01-18T19:15:28.200Z,3.57
2023-01-18T19:17:57.887Z,3.47
2023-01-18T19:20:26.529Z,3.13
2023-01-18T19:22:56.744Z,3.67
2023-01-18T19:25:25.322Z,3.70
2023-01-18T19:27:53.868Z,3.60
2023-01-18T19:30:22.611Z,3.53
2023-01-18T19:32:51.836Z,3.67
2023-01-18T19:35:20.909Z,3.87
2023-01-18T19:37:49.866Z,3.83
2023-01-18T19:40:20.108Z,3.83
2023-01-18T19:42:54.842Z,4.33
2023-01-18T19:45:28.314Z,4.13
2023-01-18T19:47:57.679Z,4.00
2023-01-18T19:50:26.485Z,4.00
2023-01-18T19:52:55.192Z,4.13
2023-01-18T19:55:25.388Z,4.10
2023-01-18T19:57:58.276Z,4.50
2023-01-18T20:00:28.865Z,4.40
2023-01-18T20:02:57.780Z,4.23
2023-01-18T20:05:27.211Z,4.03
2023-01-18T20:07:55.888Z,4.90
2023-01-18T20:10:26.108Z,5.17
2023-01-18T20:12:54.653Z,4.80
2023-01-18T20:15:23.193Z,4.80
2023-01-18T20:17:51.750Z,4.47
2023-01-18T20:20:31.447Z,4.43
2023-01-18T20:23:01.377Z,5.47
2023-01-18T20:25:31.599Z,4.77
2023-01-18T20:28:00.156Z,4.23
2023-01-18T20:30:28.703Z,4.77
2023-01-18T20:32:57.744Z,4.97
2023-01-18T20:35:27.377Z,5.50
2023-01-18T20:37:56.281Z,4.70
2023-01-18T20:40:24.853Z,5.30
2023-01-18T20:42:54.777Z,5.17
2023-01-18T20:45:23.320Z,4.53
2023-01-18T20:47:51.870Z,5.43
2023-01-18T20:50:23.110Z,4.60
2023-01-18T20:52:51.823Z,5.17
2023-01-18T20:55:20.495Z,4.40
2023-01-18T20:57:52.027Z,5.43
2023-01-18T21:00:22.586Z,4.90
2023-01-18T21:02:51.251Z,5.10
2023-01-18T21:05:19.897Z,4.90
2023-01-18T21:07:48.487Z,5.33
2023-01-18T21:10:17.360Z,4.60
2023-01-18T21:12:47.552Z,4.73
2023-01-18T21:15:16.733Z,4.90
2023-01-18T21:17:46.726Z,5.67
2023-01-18T21:20:15.457Z,4.47
2023-01-18T21:22:44.117Z,4.60
2023-01-18T21:25:12.707Z,4.17
2023-01-18T21:27:43.507Z,4.50
2023-01-18T21:30:12.747Z,5.23
2023-01-18T21:32:41.358Z,4.87
2023-01-18T21:35:11.637Z,4.57
2023-01-18T21:37:40.249Z,4.43
2023-01-18T21:40:09.547Z,5.00
2023-01-18T21:42:55.875Z,5.27
2023-01-18T21:45:42.434Z,5.23
2023-01-18T21:48:11.146Z,5.37
2023-01-18T21:50:59.789Z,5.50
2023-01-18T21:53:46.263Z,5.70
2023-01-18T21:56:14.815Z,4.70
2023-01-18T21:58:57.789Z,5.30
2023-01-18T22:01:27.508Z,4.73
2023-01-18T22:04:14.533Z,4.97
2023-01-18T22:06:44.488Z,4.90
2023-01-18T22:09:13.286Z,5.40
2023-01-18T22:11:42.221Z,5.00
2023-01-18T22:14:11.262Z,4.93
2023-01-18T22:16:40.042Z,5.30
2023-01-18T22:19:08.779Z,5.27
2023-01-18T22:21:37.518Z,4.87
2023-01-18T22:24:07.851Z,5.10
2023-01-18T22:26:36.640Z,4.73
2023-01-18T22:29:05.252Z,5.27
2023-01-18T22:31:33.984Z,5.63
2023-01-18T22:34:04.535Z,5.80
2023-01-18T22:36:34.055Z,5.40
2023-01-18T22:39:02.867Z,5.83
2023-01-18T22:41:32.756Z,5.30
2023-01-18T22:44:01.347Z,5.47
2023-01-18T22:46:29.991Z,5.83
2023-01-18T22:48:59.468Z,5.90
2023-01-18T22:51:28.267Z,5.03
2023-01-18T22:53:57.177Z,5.70
2023-01-18T22:56:26.859Z,5.80
2023-01-18T22:58:56.761Z,5.93
2023-01-18T23:01:26.612Z,5.50
2023-01-18T23:03:56.712Z,5.93
2023-01-18T23:06:25.287Z,5.80
2023-01-18T23:08:54.287Z,5.60
2023-01-18T23:11:23.823Z,5.30
2023-01-18T23:14:10.949Z,5.73
2023-01-18T23:16:59.052Z,5.57
2023-01-18T23:19:29.623Z,4.97
2023-01-18T23:21:59.296Z,5.13
2023-01-18T23:24:28.302Z,6.00
2023-01-18T23:26:57.094Z,5.40
2023-01-18T23:29:25.704Z,5.60
2023-01-18T23:31:57.360Z,5.37
2023-01-18T23:34:26.895Z,5.23
2023-01-18T23:36:55.935Z,5.33
2023-01-18T23:39:42.512Z,5.50
2023-01-18T23:42:28.904Z,5.00
2023-01-18T23:45:15.220Z,5.17
2023-01-18T23:48:03.360Z,5.33
2023-01-18T23:50:49.961Z,5.10
2023-01-18T23:53:36.178Z,5.07
2023-01-18T23:56:04.715Z,5.07
2023-01-18T23:58:33.296Z,5.40
